Namangan, Uzbekistan
Current Conditions -  °F | °C
As of 11:00 PM on Thursday 18 Dec 2014 (Local Time) from UTFF Reporting Station
Haze Haze  
Wind Chill: 29°   Ceiling: Unl
Heat Index: 36°   Visibility: 2.5mi
Dew Point: 21°   Wind: 8mph
Humidity: 56%   Direction: 130°SE
Pressure: 30.21"   Gusts: NA
Location:  41°N, 71.67°E
Report Text: UTFF 181800Z 13007KT 4100 HZ NSC 02/M06 Q1023 R18/CLRD70
Loading
Personal Weather Stations






























Interactive Weather Map New forecast layout! Learn more

10-Day Weather Forecast

Advertisements
Track Severe Weather on mobile